createdAt,value
2023-06-19T00:00:15.327Z,605.00
2023-06-19T00:01:15.408Z,605.00
2023-06-19T00:02:15.538Z,603.00
2023-06-19T00:03:15.539Z,605.00
2023-06-19T00:04:15.618Z,610.00
2023-06-19T00:05:15.607Z,606.00
2023-06-19T00:06:15.679Z,607.00
2023-06-19T00:07:15.840Z,605.00
2023-06-19T00:08:14.807Z,607.00
2023-06-19T00:09:15.838Z,601.00
2023-06-19T00:10:15.901Z,604.00
2023-06-19T00:11:16.002Z,606.00
2023-06-19T00:12:16.013Z,603.00
2023-06-19T00:13:16.053Z,610.00
2023-06-19T00:14:16.077Z,596.00
2023-06-19T00:15:15.112Z,600.00
2023-06-19T00:16:15.228Z,605.00
2023-06-19T00:17:15.208Z,606.00
2023-06-19T00:18:16.247Z,599.00
2023-06-19T00:19:16.276Z,604.00
2023-06-19T00:20:16.313Z,605.00
2023-06-19T00:21:16.327Z,602.00
2023-06-19T00:22:16.363Z,605.00
2023-06-19T00:23:16.430Z,601.00
2023-06-19T00:24:16.476Z,598.00
2023-06-19T00:25:16.504Z,599.00
2023-06-19T00:26:16.570Z,599.00
2023-06-19T00:27:16.613Z,596.00
2023-06-19T00:28:15.669Z,596.00
2023-06-19T00:29:16.776Z,595.00
2023-06-19T00:30:15.708Z,598.00
2023-06-19T00:31:15.775Z,602.00
2023-06-19T00:32:16.807Z,592.00
2023-06-19T00:33:16.833Z,597.00
2023-06-19T00:34:16.902Z,589.00
2023-06-19T00:35:16.945Z,589.00
2023-06-19T00:36:17.015Z,596.00
2023-06-19T00:37:17.061Z,591.00
2023-06-19T00:38:16.123Z,588.00
2023-06-19T00:39:17.224Z,580.00
2023-06-19T00:40:17.208Z,589.00
2023-06-19T00:41:17.242Z,582.00
2023-06-19T00:42:17.296Z,579.00
2023-06-19T00:43:16.338Z,578.00
2023-06-19T00:44:17.422Z,585.00
2023-06-19T00:45:16.443Z,583.00
2023-06-19T00:46:17.589Z,584.00
2023-06-19T00:47:17.537Z,577.00
2023-06-19T00:48:17.580Z,583.00
2023-06-19T00:49:17.630Z,583.00
2023-06-19T00:50:17.656Z,580.00
2023-06-19T00:51:17.706Z,575.00
2023-06-19T00:52:17.768Z,580.00
2023-06-19T00:53:17.788Z,579.00
2023-06-19T00:54:17.849Z,582.00
2023-06-19T00:55:17.935Z,582.00
2023-06-19T00:56:17.934Z,577.00
2023-06-19T00:57:17.981Z,584.00
2023-06-19T00:58:18.027Z,579.00
2023-06-19T00:59:18.067Z,578.00
2023-06-19T01:00:18.100Z,581.00
2023-06-19T01:01:18.182Z,579.00
2023-06-19T01:02:18.452Z,575.00
2023-06-19T01:03:19.162Z,580.00
2023-06-19T01:04:18.388Z,575.00
2023-06-19T01:05:18.334Z,578.00
2023-06-19T01:06:18.397Z,584.00
2023-06-19T01:07:17.409Z,582.00
2023-06-19T01:08:18.486Z,578.00
2023-06-19T01:09:17.509Z,573.00
2023-06-19T01:10:18.525Z,571.00
2023-06-19T01:11:26.618Z,573.00
2023-06-19T01:12:18.546Z,574.00
2023-06-19T01:13:18.546Z,575.00
2023-06-19T01:14:18.548Z,577.00
2023-06-19T01:15:17.545Z,577.00
2023-06-19T01:16:18.546Z,579.00
2023-06-19T01:17:18.507Z,581.00
2023-06-19T01:18:18.513Z,581.00
2023-06-19T01:19:18.498Z,580.00
2023-06-19T01:20:18.500Z,575.00
2023-06-19T01:21:18.489Z,582.00
2023-06-19T01:22:18.502Z,581.00
2023-06-19T01:23:18.474Z,580.00
2023-06-19T01:24:18.509Z,583.00
2023-06-19T01:25:18.456Z,575.00
2023-06-19T01:26:18.453Z,578.00
2023-06-19T01:27:18.569Z,577.00
2023-06-19T01:28:18.438Z,583.00
2023-06-19T01:29:18.453Z,578.00
2023-06-19T01:30:18.435Z,577.00
2023-06-19T01:31:18.449Z,581.00
2023-06-19T01:32:18.458Z,575.00
2023-06-19T01:33:18.421Z,579.00
2023-06-19T01:34:18.414Z,574.00
2023-06-19T01:35:17.412Z,582.00
2023-06-19T01:36:18.398Z,577.00
2023-06-19T01:37:18.447Z,583.00
2023-06-19T01:38:18.397Z,577.00
2023-06-19T01:39:18.377Z,575.00
2023-06-19T01:40:17.425Z,584.00
2023-06-19T01:41:18.482Z,580.00
2023-06-19T01:42:18.551Z,580.00
2023-06-19T01:43:18.606Z,582.00
2023-06-19T01:44:18.644Z,579.00
2023-06-19T01:45:18.684Z,576.00
2023-06-19T01:46:18.841Z,582.00
2023-06-19T01:47:18.811Z,580.00
2023-06-19T01:48:18.879Z,579.00
2023-06-19T01:49:18.930Z,580.00
2023-06-19T01:50:18.966Z,587.00
2023-06-19T01:51:19.025Z,586.00
2023-06-19T01:52:19.026Z,583.00
2023-06-19T01:53:19.065Z,580.00
2023-06-19T01:54:18.126Z,579.00
2023-06-19T01:55:18.185Z,575.00
2023-06-19T01:56:19.261Z,578.00
2023-06-19T01:57:19.323Z,578.00
2023-06-19T01:58:18.385Z,580.00
2023-06-19T01:59:19.486Z,583.00
2023-06-19T02:00:19.501Z,579.00
2023-06-19T02:01:19.569Z,575.00
2023-06-19T02:02:18.623Z,580.00
2023-06-19T02:03:19.715Z,578.00
2023-06-19T02:04:18.731Z,582.00
2023-06-19T02:05:19.789Z,578.00
2023-06-19T02:06:19.880Z,576.00
2023-06-19T02:07:19.887Z,582.00
2023-06-19T02:08:19.921Z,578.00
2023-06-19T02:09:19.964Z,584.00
2023-06-19T02:10:19.044Z,584.00
2023-06-19T02:11:20.128Z,582.00
2023-06-19T02:12:20.177Z,577.00
2023-06-19T02:13:20.202Z,571.00
2023-06-19T02:14:20.268Z,576.00
2023-06-19T02:15:20.356Z,576.00
2023-06-19T02:16:20.477Z,572.00
2023-06-19T02:17:20.540Z,576.00
2023-06-19T02:18:20.522Z,577.00
2023-06-19T02:19:19.588Z,581.00
2023-06-19T02:20:20.696Z,579.00
2023-06-19T02:21:20.699Z,581.00
2023-06-19T02:22:20.794Z,580.00
2023-06-19T02:23:20.839Z,577.00
2023-06-19T02:24:20.905Z,577.00
2023-06-19T02:25:20.893Z,580.00
2023-06-19T02:26:21.000Z,576.00
2023-06-19T02:27:21.042Z,582.00
2023-06-19T02:28:21.123Z,584.00
2023-06-19T02:29:21.170Z,574.00
2023-06-19T02:30:21.425Z,571.00
2023-06-19T02:31:20.304Z,575.00
2023-06-19T02:32:21.356Z,572.00
2023-06-19T02:33:21.376Z,580.00
2023-06-19T02:34:20.440Z,582.00
2023-06-19T02:35:21.503Z,580.00
2023-06-19T02:36:21.571Z,580.00
2023-06-19T02:37:21.602Z,574.00
2023-06-19T02:38:21.659Z,573.00
2023-06-19T02:39:22.596Z,574.00
2023-06-19T02:40:22.138Z,578.00
2023-06-19T02:41:21.808Z,573.00
2023-06-19T02:42:21.884Z,578.00
2023-06-19T02:43:20.921Z,579.00
2023-06-19T02:44:21.990Z,578.00
2023-06-19T02:45:22.015Z,575.00
2023-06-19T02:46:22.219Z,574.00
2023-06-19T02:47:22.102Z,577.00
2023-06-19T02:48:22.107Z,574.00
2023-06-19T02:49:22.178Z,570.00
2023-06-19T02:50:22.455Z,578.00
2023-06-19T02:51:21.265Z,578.00
2023-06-19T02:52:22.323Z,580.00
2023-06-19T02:53:22.370Z,577.00
2023-06-19T02:54:22.421Z,576.00
2023-06-19T02:55:22.465Z,573.00
2023-06-19T02:56:21.522Z,580.00
2023-06-19T02:57:22.599Z,581.00
2023-06-19T02:58:21.643Z,579.00
2023-06-19T02:59:22.700Z,577.00
2023-06-19T03:00:22.980Z,579.00
2023-06-19T03:01:21.798Z,580.00
2023-06-19T03:02:22.925Z,578.00
2023-06-19T03:03:21.987Z,579.00
2023-06-19T03:04:22.939Z,573.00
2023-06-19T03:05:23.006Z,581.00
2023-06-19T03:06:23.067Z,581.00
2023-06-19T03:07:23.085Z,580.00
2023-06-19T03:08:23.136Z,577.00
2023-06-19T03:09:23.174Z,581.00
2023-06-19T03:10:23.475Z,577.00
2023-06-19T03:11:23.270Z,581.00
2023-06-19T03:12:22.314Z,578.00
2023-06-19T03:13:22.296Z,576.00
2023-06-19T03:14:23.348Z,573.00
2023-06-19T03:15:23.416Z,578.00
2023-06-19T03:16:23.519Z,582.00
2023-06-19T03:17:23.577Z,578.00
2023-06-19T03:18:23.657Z,580.00
2023-06-19T03:19:23.629Z,577.00
2023-06-19T03:20:23.946Z,580.00
2023-06-19T03:21:22.714Z,582.00
2023-06-19T03:22:23.738Z,584.00
2023-06-19T03:23:23.744Z,576.00
2023-06-19T03:24:23.810Z,577.00
2023-06-19T03:25:22.789Z,582.00
2023-06-19T03:26:23.813Z,580.00
2023-06-19T03:27:23.855Z,578.00
2023-06-19T03:28:23.883Z,581.00
2023-06-19T03:29:22.895Z,582.00
2023-06-19T03:30:24.197Z,580.00
2023-06-19T03:31:23.904Z,579.00
2023-06-19T03:32:22.941Z,577.00
2023-06-19T03:33:22.933Z,577.00
2023-06-19T03:34:23.999Z,581.00
2023-06-19T03:35:23.007Z,580.00
2023-06-19T03:36:24.055Z,582.00
2023-06-19T03:37:24.064Z,582.00
2023-06-19T03:38:23.081Z,583.00
2023-06-19T03:39:24.096Z,579.00
2023-06-19T03:40:23.908Z,582.00
2023-06-19T03:41:23.234Z,583.00
2023-06-19T03:42:24.260Z,585.00
2023-06-19T03:43:24.303Z,584.00
2023-06-19T03:44:24.374Z,582.00
2023-06-19T03:45:24.419Z,579.00
2023-06-19T03:46:24.492Z,580.00
2023-06-19T03:47:24.549Z,582.00
2023-06-19T03:48:24.527Z,582.00
2023-06-19T03:49:24.552Z,581.00
2023-06-19T03:50:27.194Z,581.00
2023-06-19T03:51:24.598Z,592.00
2023-06-19T03:52:24.573Z,584.00
2023-06-19T03:53:24.573Z,586.00
2023-06-19T03:54:24.551Z,583.00
2023-06-19T03:55:24.556Z,586.00
2023-06-19T03:56:24.550Z,580.00
2023-06-19T03:57:24.575Z,585.00
2023-06-19T03:58:24.543Z,586.00
2023-06-19T03:59:23.534Z,583.00
2023-06-19T04:00:24.012Z,587.00
2023-06-19T04:01:24.542Z,584.00
2023-06-19T04:02:24.512Z,586.00
2023-06-19T04:03:24.699Z,579.00
2023-06-19T04:04:24.501Z,585.00
2023-06-19T04:05:24.516Z,581.00
2023-06-19T04:06:24.522Z,585.00
2023-06-19T04:07:24.499Z,583.00
2023-06-19T04:08:24.485Z,583.00
2023-06-19T04:09:24.463Z,582.00
2023-06-19T04:10:24.688Z,585.00
2023-06-19T04:11:24.465Z,581.00
2023-06-19T04:12:24.442Z,585.00
2023-06-19T04:13:24.428Z,582.00
2023-06-19T04:14:24.440Z,583.00
2023-06-19T04:15:24.429Z,581.00
2023-06-19T04:16:24.471Z,578.00
2023-06-19T04:17:24.424Z,577.00
2023-06-19T04:18:24.404Z,581.00
2023-06-19T04:19:24.386Z,580.00
2023-06-19T04:20:24.627Z,584.00
2023-06-19T04:21:24.388Z,575.00
2023-06-19T04:22:24.391Z,579.00
2023-06-19T04:23:24.377Z,581.00
2023-06-19T04:24:24.421Z,580.00
2023-06-19T04:25:24.347Z,581.00
2023-06-19T04:26:24.512Z,584.00
2023-06-19T04:27:24.363Z,580.00
2023-06-19T04:28:24.335Z,578.00
2023-06-19T04:29:24.337Z,582.00
2023-06-19T04:30:24.576Z,579.00
2023-06-19T04:31:24.338Z,583.00
2023-06-19T04:32:24.336Z,583.00
2023-06-19T04:33:24.415Z,585.00
2023-06-19T04:34:24.296Z,582.00
2023-06-19T04:35:24.294Z,586.00
2023-06-19T04:36:23.278Z,582.00
2023-06-19T04:37:24.267Z,576.00
2023-06-19T04:38:23.298Z,576.00
2023-06-19T04:39:24.249Z,579.00
2023-06-19T04:40:24.456Z,580.00
2023-06-19T04:41:24.251Z,580.00
2023-06-19T04:42:24.246Z,578.00
2023-06-19T04:43:23.239Z,586.00
2023-06-19T04:44:23.220Z,581.00
2023-06-19T04:45:23.232Z,583.00
2023-06-19T04:46:24.344Z,579.00
2023-06-19T04:47:23.377Z,578.00
2023-06-19T04:48:24.354Z,581.00
2023-06-19T04:49:24.515Z,584.00
2023-06-19T04:50:23.854Z,584.00
2023-06-19T04:51:24.365Z,581.00
2023-06-19T04:52:23.385Z,580.00
2023-06-19T04:53:23.395Z,576.00
2023-06-19T04:54:24.433Z,578.00
2023-06-19T04:55:23.436Z,578.00
2023-06-19T04:56:24.500Z,577.00
2023-06-19T04:57:24.518Z,578.00
2023-06-19T04:58:24.586Z,578.00
2023-06-19T04:59:24.613Z,579.00
2023-06-19T05:00:24.995Z,578.00
2023-06-19T05:01:23.724Z,579.00
2023-06-19T05:02:23.770Z,573.00
2023-06-19T05:03:24.803Z,576.00
2023-06-19T05:04:24.900Z,581.00
2023-06-19T05:05:24.794Z,575.00
2023-06-19T05:06:24.917Z,579.00
2023-06-19T05:07:25.010Z,574.00
2023-06-19T05:08:25.037Z,581.00
2023-06-19T05:09:24.107Z,579.00
2023-06-19T05:10:25.471Z,575.00
2023-06-19T05:11:24.238Z,573.00
2023-06-19T05:12:25.314Z,577.00
2023-06-19T05:13:25.368Z,574.00
2023-06-19T05:14:25.449Z,575.00
2023-06-19T05:15:25.474Z,580.00
2023-06-19T05:16:24.591Z,578.00
2023-06-19T05:17:25.730Z,576.00
2023-06-19T05:18:25.644Z,569.00
2023-06-19T05:19:24.656Z,574.00
2023-06-19T05:20:24.903Z,582.00
2023-06-19T05:21:24.773Z,586.00
2023-06-19T05:22:25.798Z,583.00
2023-06-19T05:23:24.803Z,579.00
2023-06-19T05:24:25.901Z,592.00
2023-06-19T05:25:24.862Z,594.00
2023-06-19T05:26:25.952Z,586.00
2023-06-19T05:27:25.985Z,583.00
2023-06-19T05:28:26.047Z,586.00
2023-06-19T05:29:26.077Z,580.00
2023-06-19T05:30:26.504Z,585.00
2023-06-19T05:31:25.171Z,581.00
2023-06-19T05:32:26.282Z,581.00
2023-06-19T05:33:26.307Z,583.00
2023-06-19T05:34:25.370Z,583.00
2023-06-19T05:35:26.424Z,589.00
2023-06-19T05:36:26.457Z,588.00
2023-06-19T05:37:26.501Z,582.00
2023-06-19T05:38:26.529Z,585.00
2023-06-19T05:39:26.563Z,583.00
2023-06-19T05:40:25.799Z,579.00
2023-06-19T05:41:26.670Z,583.00
2023-06-19T05:42:25.771Z,585.00
2023-06-19T05:43:26.788Z,583.00
2023-06-19T05:44:26.852Z,579.00
2023-06-19T05:45:26.897Z,581.00
2023-06-19T05:46:27.070Z,577.00
2023-06-19T05:47:27.228Z,580.00
2023-06-19T05:48:27.047Z,583.00
2023-06-19T05:49:27.140Z,584.00
2023-06-19T05:50:26.472Z,581.00
2023-06-19T05:51:27.618Z,583.00
2023-06-19T05:52:26.278Z,579.00
2023-06-19T05:53:26.311Z,584.00
2023-06-19T05:54:26.359Z,582.00
2023-06-19T05:55:26.467Z,587.00
2023-06-19T05:56:27.482Z,586.00
2023-06-19T05:57:27.515Z,585.00
2023-06-19T05:58:26.627Z,592.00
2023-06-19T05:59:27.613Z,581.00
2023-06-19T06:00:26.917Z,587.00
2023-06-19T06:01:27.730Z,582.00
2023-06-19T06:02:28.204Z,580.00
2023-06-19T06:03:27.785Z,586.00
2023-06-19T06:04:27.850Z,585.00
2023-06-19T06:05:27.861Z,582.00
2023-06-19T06:06:27.100Z,583.00
2023-06-19T06:07:28.019Z,587.00
2023-06-19T06:08:28.052Z,584.00
2023-06-19T06:09:27.037Z,579.00
2023-06-19T06:10:27.405Z,585.00
2023-06-19T06:11:28.076Z,579.00
2023-06-19T06:12:28.131Z,590.00
2023-06-19T06:13:28.130Z,585.00
2023-06-19T06:14:28.239Z,588.00
2023-06-19T06:15:28.245Z,580.00
2023-06-19T06:16:28.301Z,582.00
2023-06-19T06:17:28.420Z,587.00
2023-06-19T06:18:28.380Z,591.00
2023-06-19T06:19:28.835Z,591.00
2023-06-19T06:20:28.532Z,585.00
2023-06-19T06:21:28.568Z,585.00
2023-06-19T06:22:28.625Z,586.00
2023-06-19T06:23:28.653Z,586.00
2023-06-19T06:24:28.760Z,587.00
2023-06-19T06:25:28.754Z,590.00
2023-06-19T06:26:28.816Z,589.00
2023-06-19T06:27:28.884Z,585.00
2023-06-19T06:28:28.928Z,587.00
2023-06-19T06:29:28.973Z,586.00
2023-06-19T06:30:29.094Z,589.00
2023-06-19T06:31:29.101Z,588.00
2023-06-19T06:32:29.184Z,594.00
2023-06-19T06:33:29.212Z,594.00
2023-06-19T06:34:29.266Z,590.00
2023-06-19T06:35:29.323Z,593.00
2023-06-19T06:36:36.127Z,594.00
2023-06-19T06:37:29.393Z,594.00
2023-06-19T06:38:28.387Z,596.00
2023-06-19T06:39:29.400Z,596.00
2023-06-19T06:40:29.352Z,599.00
2023-06-19T06:41:29.348Z,597.00
2023-06-19T06:42:28.369Z,602.00
2023-06-19T06:43:29.345Z,600.00
2023-06-19T06:44:28.347Z,599.00
2023-06-19T06:45:29.371Z,601.00
2023-06-19T06:46:29.383Z,593.00
2023-06-19T06:47:29.361Z,595.00
2023-06-19T06:48:29.297Z,607.00
2023-06-19T06:49:29.287Z,598.00
2023-06-19T06:50:29.290Z,601.00
2023-06-19T06:51:29.298Z,598.00
2023-06-19T06:52:29.713Z,605.00
2023-06-19T06:53:29.275Z,604.00
2023-06-19T06:54:29.253Z,603.00
2023-06-19T06:55:28.259Z,595.00
2023-06-19T06:56:29.256Z,603.00
2023-06-19T06:57:29.717Z,603.00
2023-06-19T06:58:29.238Z,601.00
2023-06-19T06:59:29.232Z,601.00
2023-06-19T07:00:29.230Z,604.00
2023-06-19T07:01:29.245Z,599.00
2023-06-19T07:02:28.384Z,603.00
2023-06-19T07:03:29.282Z,600.00
2023-06-19T07:04:29.329Z,597.00
2023-06-19T07:05:29.371Z,595.00
2023-06-19T07:06:28.422Z,605.00
2023-06-19T07:07:28.458Z,600.00
2023-06-19T07:08:29.520Z,601.00
2023-06-19T07:09:29.585Z,594.00
2023-06-19T07:10:29.636Z,600.00
2023-06-19T07:11:29.659Z,595.00
2023-06-19T07:12:29.723Z,595.00
2023-06-19T07:13:29.768Z,595.00
2023-06-19T07:14:29.790Z,598.00
2023-06-19T07:15:29.860Z,598.00
2023-06-19T07:16:29.922Z,599.00
2023-06-19T07:17:30.014Z,595.00
2023-06-19T07:18:28.973Z,600.00
2023-06-19T07:19:29.038Z,597.00
2023-06-19T07:20:29.136Z,594.00
2023-06-19T07:21:30.129Z,600.00
2023-06-19T07:22:30.166Z,590.00
2023-06-19T07:23:30.229Z,596.00
2023-06-19T07:24:30.433Z,597.00
2023-06-19T07:25:30.313Z,606.00
2023-06-19T07:26:30.356Z,596.00
2023-06-19T07:27:30.442Z,595.00
2023-06-19T07:28:30.446Z,597.00
2023-06-19T07:29:30.517Z,598.00
2023-06-19T07:30:30.546Z,595.00
2023-06-19T07:31:30.598Z,596.00
2023-06-19T07:32:30.731Z,596.00
2023-06-19T07:33:30.722Z,597.00
2023-06-19T07:34:29.732Z,591.00
2023-06-19T07:35:29.765Z,590.00
2023-06-19T07:36:29.817Z,597.00
2023-06-19T07:37:30.861Z,597.00
2023-06-19T07:38:30.899Z,594.00
2023-06-19T07:39:29.958Z,593.00
2023-06-19T07:40:31.000Z,592.00
2023-06-19T07:41:31.022Z,598.00
2023-06-19T07:42:31.066Z,596.00
2023-06-19T07:43:30.103Z,595.00
2023-06-19T07:44:31.135Z,595.00
2023-06-19T07:45:31.188Z,594.00
2023-06-19T07:46:31.313Z,599.00
2023-06-19T07:47:31.781Z,592.00
2023-06-19T07:48:31.296Z,597.00
2023-06-19T07:49:32.236Z,596.00
2023-06-19T07:50:31.622Z,589.00
2023-06-19T07:51:30.340Z,590.00
2023-06-19T07:52:31.727Z,593.00
2023-06-19T07:53:31.380Z,597.00
2023-06-19T07:54:30.403Z,592.00
2023-06-19T07:55:30.437Z,586.00
2023-06-19T07:56:31.489Z,597.00
2023-06-19T07:57:31.530Z,592.00
2023-06-19T07:58:31.556Z,593.00
2023-06-19T07:59:31.575Z,588.00
2023-06-19T08:00:31.623Z,594.00
2023-06-19T08:01:31.720Z,592.00
2023-06-19T08:02:31.756Z,595.00
2023-06-19T08:03:31.842Z,590.00
2023-06-19T08:04:33.262Z,593.00
2023-06-19T08:05:31.785Z,602.00
2023-06-19T08:06:31.740Z,597.00
2023-06-19T08:07:31.724Z,597.00
2023-06-19T08:08:31.738Z,597.00
2023-06-19T08:09:31.729Z,585.00
2023-06-19T08:10:31.901Z,590.00
2023-06-19T08:11:31.693Z,595.00
2023-06-19T08:12:31.707Z,595.00
2023-06-19T08:13:31.679Z,592.00
2023-06-19T08:14:31.669Z,590.00
2023-06-19T08:15:31.678Z,595.00
2023-06-19T08:16:31.774Z,596.00
2023-06-19T08:17:31.698Z,590.00
2023-06-19T08:18:31.640Z,592.00
2023-06-19T08:19:31.641Z,589.00
2023-06-19T08:20:31.638Z,592.00
2023-06-19T08:21:31.672Z,596.00
2023-06-19T08:22:31.617Z,591.00
2023-06-19T08:23:31.611Z,588.00
2023-06-19T08:24:31.696Z,594.00
2023-06-19T08:25:31.603Z,592.00
2023-06-19T08:26:31.651Z,594.00
2023-06-19T08:27:31.598Z,592.00
2023-06-19T08:28:31.582Z,595.00
2023-06-19T08:29:31.580Z,589.00
2023-06-19T08:30:31.569Z,595.00
2023-06-19T08:31:31.549Z,593.00
2023-06-19T08:32:30.586Z,588.00
2023-06-19T08:33:31.550Z,596.00
2023-06-19T08:34:30.538Z,585.00
2023-06-19T08:35:30.541Z,589.00
2023-06-19T08:36:30.536Z,593.00
2023-06-19T08:37:31.665Z,592.00
2023-06-19T08:38:31.496Z,593.00
2023-06-19T08:39:31.508Z,590.00
2023-06-19T08:40:31.502Z,593.00
2023-06-19T08:41:31.492Z,590.00
2023-06-19T08:42:31.765Z,589.00
2023-06-19T08:43:31.477Z,593.00
2023-06-19T08:44:31.491Z,590.00
2023-06-19T08:45:31.458Z,590.00
2023-06-19T08:46:31.601Z,590.00
2023-06-19T08:47:30.586Z,591.00
2023-06-19T08:48:31.550Z,590.00
2023-06-19T08:49:30.571Z,591.00
2023-06-19T08:50:31.608Z,591.00
2023-06-19T08:51:31.663Z,588.00
2023-06-19T08:52:31.796Z,597.00
2023-06-19T08:53:31.724Z,593.00
2023-06-19T08:54:30.730Z,590.00
2023-06-19T08:55:31.757Z,591.00
2023-06-19T08:56:31.812Z,591.00
2023-06-19T08:57:32.254Z,591.00
2023-06-19T08:58:31.843Z,585.00
2023-06-19T08:59:31.870Z,590.00
2023-06-19T09:00:32.443Z,587.00
2023-06-19T09:01:31.910Z,592.00
2023-06-19T09:02:32.156Z,593.00
2023-06-19T09:03:32.143Z,597.00
2023-06-19T09:04:31.985Z,603.00
2023-06-19T09:05:32.054Z,600.00
2023-06-19T09:06:32.158Z,603.00
2023-06-19T09:07:32.222Z,609.00
2023-06-19T09:08:32.145Z,615.00
2023-06-19T09:09:31.354Z,619.00
2023-06-19T09:10:32.234Z,623.00
2023-06-19T09:11:32.279Z,623.00
2023-06-19T09:12:32.269Z,624.00
2023-06-19T09:13:31.288Z,621.00
2023-06-19T09:14:32.332Z,620.00
2023-06-19T09:15:32.370Z,632.00
2023-06-19T09:16:32.378Z,625.00
2023-06-19T09:17:32.426Z,623.00
2023-06-19T09:18:32.417Z,630.00
2023-06-19T09:19:31.642Z,630.00
2023-06-19T09:20:32.388Z,638.00
2023-06-19T09:21:32.408Z,636.00
2023-06-19T09:22:32.939Z,638.00
2023-06-19T09:23:32.437Z,643.00
2023-06-19T09:24:32.502Z,643.00
2023-06-19T09:25:32.420Z,641.00
2023-06-19T09:26:32.470Z,647.00
2023-06-19T09:27:32.428Z,647.00
2023-06-19T09:28:32.457Z,653.00
2023-06-19T09:29:31.470Z,649.00
2023-06-19T09:30:32.488Z,654.00
2023-06-19T09:31:32.498Z,658.00
2023-06-19T09:32:35.775Z,662.00
2023-06-19T09:33:32.537Z,662.00
2023-06-19T09:34:32.489Z,663.00
2023-06-19T09:35:32.490Z,667.00
2023-06-19T09:36:32.457Z,680.00
2023-06-19T09:37:32.558Z,695.00
2023-06-19T09:38:32.558Z,683.00
2023-06-19T09:39:32.452Z,696.00
2023-06-19T09:40:32.544Z,704.00
2023-06-19T09:41:32.529Z,711.00
2023-06-19T09:42:32.440Z,728.00
2023-06-19T09:43:32.439Z,718.00
2023-06-19T09:44:36.938Z,744.00
2023-06-19T09:45:32.422Z,746.00
2023-06-19T09:46:32.409Z,749.00
2023-06-19T09:47:32.449Z,754.00
2023-06-19T09:48:32.826Z,773.00
2023-06-19T09:49:32.417Z,781.00
2023-06-19T09:50:32.438Z,778.00
2023-06-19T09:51:32.362Z,761.00
2023-06-19T09:52:32.383Z,766.00
2023-06-19T09:53:32.785Z,757.00
2023-06-19T09:54:31.342Z,775.00
2023-06-19T09:55:32.336Z,758.00
2023-06-19T09:56:31.336Z,767.00
2023-06-19T09:57:31.370Z,751.00
2023-06-19T09:58:31.336Z,742.00
2023-06-19T09:59:32.313Z,757.00
2023-06-19T10:00:32.442Z,752.00
2023-06-19T10:01:32.303Z,752.00
2023-06-19T10:02:32.346Z,746.00
2023-06-19T10:03:32.384Z,746.00
2023-06-19T10:04:32.291Z,744.00
2023-06-19T10:05:31.285Z,733.00
2023-06-19T10:06:32.268Z,719.00
2023-06-19T10:07:31.253Z,717.00
2023-06-19T10:08:31.258Z,719.00
2023-06-19T10:09:32.245Z,714.00
2023-06-19T10:10:34.058Z,723.00
2023-06-19T10:11:32.265Z,728.00
2023-06-19T10:12:31.257Z,727.00
2023-06-19T10:13:32.276Z,722.00
2023-06-19T10:14:32.246Z,716.00
2023-06-19T10:15:32.229Z,714.00
2023-06-19T10:16:32.336Z,717.00
2023-06-19T10:17:32.253Z,701.00
2023-06-19T10:18:32.204Z,705.00
2023-06-19T10:19:31.221Z,706.00
2023-06-19T10:20:32.226Z,705.00
2023-06-19T10:21:31.185Z,699.00
2023-06-19T10:22:32.212Z,682.00
2023-06-19T10:23:32.184Z,720.00
2023-06-19T10:24:32.200Z,701.00
2023-06-19T10:25:31.154Z,708.00
2023-06-19T10:26:32.152Z,693.00
2023-06-19T10:27:32.156Z,697.00
2023-06-19T10:28:32.174Z,698.00
2023-06-19T10:29:32.201Z,707.00
2023-06-19T10:30:32.170Z,682.00
2023-06-19T10:31:32.116Z,683.00
2023-06-19T10:32:32.196Z,689.00
2023-06-19T10:33:32.104Z,690.00
2023-06-19T10:34:32.110Z,687.00
2023-06-19T10:35:31.104Z,691.00
2023-06-19T10:36:32.102Z,691.00
2023-06-19T10:37:32.085Z,695.00
2023-06-19T10:38:32.087Z,692.00
2023-06-19T10:39:31.069Z,685.00
2023-06-19T10:40:32.064Z,694.00
2023-06-19T10:41:32.051Z,687.00
2023-06-19T10:42:32.065Z,686.00
2023-06-19T10:43:32.294Z,682.00
2023-06-19T10:44:32.056Z,685.00
2023-06-19T10:45:32.155Z,689.00
2023-06-19T10:46:32.175Z,687.00
2023-06-19T10:47:32.132Z,681.00
2023-06-19T10:48:32.159Z,691.00
2023-06-19T10:49:32.194Z,2719.00
2023-06-19T10:50:32.218Z,3681.00
2023-06-19T10:51:32.252Z,3950.00
2023-06-19T10:52:32.268Z,3918.00
2023-06-19T10:53:32.300Z,3594.00
2023-06-19T10:54:32.382Z,3264.00
2023-06-19T10:55:34.569Z,3123.00
2023-06-19T10:56:32.340Z,2917.00
2023-06-19T10:57:32.304Z,2788.00
2023-06-19T10:58:31.298Z,2493.00
2023-06-19T10:59:32.295Z,2369.00
2023-06-19T11:00:32.285Z,2400.00
2023-06-19T11:01:31.322Z,2516.00
2023-06-19T11:02:33.977Z,2535.00
2023-06-19T11:03:31.353Z,2665.00
2023-06-19T11:04:34.909Z,2729.00
2023-06-19T11:05:32.259Z,2629.00
2023-06-19T11:06:32.252Z,2435.00
2023-06-19T11:07:31.305Z,2301.00
2023-06-19T11:08:32.245Z,2238.00
2023-06-19T11:09:32.417Z,2175.00
2023-06-19T11:10:31.206Z,2138.00
2023-06-19T11:11:32.211Z,2170.00
2023-06-19T11:12:31.211Z,2172.00
2023-06-19T11:13:31.203Z,2148.00
2023-06-19T11:14:31.315Z,2130.00
2023-06-19T11:15:32.227Z,2146.00
2023-06-19T11:16:32.191Z,2148.00
2023-06-19T11:17:32.250Z,2115.00
2023-06-19T11:18:32.163Z,2122.00
2023-06-19T11:19:32.168Z,2101.00
2023-06-19T11:20:32.197Z,2096.00
2023-06-19T11:21:31.152Z,2105.00
2023-06-19T11:22:32.133Z,2089.00
2023-06-19T11:23:32.139Z,2094.00
2023-06-19T11:24:31.144Z,2080.00
2023-06-19T11:25:31.167Z,2079.00
2023-06-19T11:26:32.120Z,2051.00
2023-06-19T11:27:32.147Z,2053.00
2023-06-19T11:28:43.093Z,2051.00
2023-06-19T11:29:32.152Z,2053.00
2023-06-19T11:30:32.225Z,2058.00
2023-06-19T11:31:32.078Z,2062.00
2023-06-19T11:32:32.123Z,2036.00
2023-06-19T11:33:32.112Z,2000.00
2023-06-19T11:34:32.073Z,1957.00
2023-06-19T11:35:32.085Z,1955.00
2023-06-19T11:36:32.044Z,1966.00
2023-06-19T11:37:32.036Z,1956.00
2023-06-19T11:38:32.042Z,1963.00
2023-06-19T11:39:32.037Z,1969.00
2023-06-19T11:40:32.030Z,1962.00
2023-06-19T11:41:31.036Z,1947.00
2023-06-19T11:42:32.029Z,1953.00
2023-06-19T11:43:32.042Z,1945.00
2023-06-19T11:44:31.992Z,1955.00
2023-06-19T11:45:32.003Z,1945.00
2023-06-19T11:46:32.050Z,1938.00
2023-06-19T11:47:32.073Z,1936.00
2023-06-19T11:48:31.992Z,1939.00
2023-06-19T11:49:31.995Z,1941.00
2023-06-19T11:50:31.974Z,1946.00
2023-06-19T11:51:31.952Z,1933.00
2023-06-19T11:52:31.954Z,1939.00
2023-06-19T11:53:30.971Z,1917.00
2023-06-19T11:54:31.948Z,1910.00
2023-06-19T11:55:31.939Z,1885.00
2023-06-19T11:56:31.945Z,1880.00
2023-06-19T11:57:31.934Z,1888.00
2023-06-19T11:58:31.971Z,1889.00
2023-06-19T11:59:32.015Z,1871.00
2023-06-19T12:00:32.054Z,1861.00
2023-06-19T12:01:32.087Z,1860.00
2023-06-19T12:02:32.219Z,1821.00
2023-06-19T12:03:32.382Z,1855.00
2023-06-19T12:04:31.429Z,1852.00
2023-06-19T12:05:32.321Z,1842.00
2023-06-19T12:06:32.352Z,1835.00
2023-06-19T12:07:32.401Z,1833.00
2023-06-19T12:08:32.449Z,1813.00
2023-06-19T12:09:32.510Z,1830.00
2023-06-19T12:10:32.572Z,1824.00
2023-06-19T12:11:32.614Z,1817.00
2023-06-19T12:12:31.652Z,1813.00
2023-06-19T12:13:32.680Z,1792.00
2023-06-19T12:14:32.742Z,1813.00
2023-06-19T12:15:33.466Z,1800.00
2023-06-19T12:16:32.826Z,1793.00
2023-06-19T12:17:31.808Z,1804.00
2023-06-19T12:18:31.788Z,1793.00
2023-06-19T12:19:31.778Z,1781.00
2023-06-19T12:20:32.753Z,1765.00
2023-06-19T12:21:37.890Z,1772.00
2023-06-19T12:22:32.752Z,1774.00
2023-06-19T12:23:32.761Z,1777.00
2023-06-19T12:24:32.813Z,1776.00
2023-06-19T12:25:32.743Z,1779.00